• Join FlightAware (Why Join?)
  • Login
  • US Flag 
11:03PM EDT


 

Airport Tracker/Info


-or-


 

Live Flight TrackerFlight Track Log ✈ UAL654 ✈ 12-Jun-2013 ✈ KORD - KMCO

Flight Track Log - Related Links

Times and Time Zones

All times are in EDT time to prevent confusion due to time zone crossing. See the UAL654 flight status page for this flight to view local times or setup timezone preferences in your user account.

Time Position Orientation Groundspeed Altitude Reporting Facility
EDT Latitude Longitude Course Direction KTS MPH feet Rate Location/Type
07:22AM 41.9167 -87.9000 173° South 162 186 3,300  Level Chicago TRACON
07:23AM 41.8667 -87.9000 180° South 188 216 4,400 1,140 Climbing Chicago TRACON
07:24AM 41.6532 -87.7140 157° South  Level Estimated
07:24AM 41.8114 -87.9003 180° South 235 270 5,500  Level Chicago Center
07:25AM 41.5437 -87.6503 153° Southeast  Level Estimated
07:25AM 41.7422 -87.8386 146° Southeast 289 333 8,300  Level Chicago Center
07:26AM 41.4341 -87.5867 166° South  Level Estimated
07:26AM 41.6694 -87.7783 148° Southeast 302 348 10,700  Level Chicago Center
07:27AM 41.3245 -87.5234 173° South  Level Estimated
07:27AM 41.5889 -87.7097 147° Southeast 339 390 12,500  Level Chicago Center
07:28AM 41.4803 -87.6172 147° Southeast 379 436 15,000 2,400 Climbing Chicago Center
07:29AM 41.3778 -87.5653 159° South 398 458 17,400 2,220 Climbing Chicago Center
07:30AM 41.2703 -87.5458 172° South 390 449 19,600 1,920 Climbing Chicago Center
07:31AM 41.1589 -87.5242 172° South 398 458 21,400 1,620 Climbing Chicago Center
07:32AM 41.0442 -87.4914 168° South 415 478 23,000 1,320 Climbing Chicago Center
07:33AM 40.9239 -87.4575 168° South 433 498 24,200 1,320 Climbing Chicago Center
07:34AM 40.8014 -87.4186 166° South 451 519 25,800 1,440 Climbing Chicago Center
07:35AM 40.6792 -87.3594 160° South 468 539 27,200 1,260 Climbing Chicago Center
07:36AM 40.5594 -87.2833 154° Southeast 478 550 28,400 1,260 Climbing Chicago Center
07:37AM 40.4186 -87.1981 155° Southeast 492 566 29,800 1,260 Climbing Chicago Center
07:38AM 40.2975 -87.1092 151° Southeast 500 575 31,000 1,260 Climbing Chicago Center
07:39AM 40.1767 -87.0214 151° Southeast 501 577 32,400 1,380 Climbing Chicago Center
07:40AM 40.0792 -86.9503 151° Southeast 498 573 33,600 1,260 Climbing Indianapolis Center
07:41AM 39.9592 -86.8658 152° Southeast 493 567 34,800 660 Climbing Indianapolis Center
07:42AM 39.8175 -86.7644 151° Southeast 489 563 35,000 60 Climbing Indianapolis Center
07:43AM 39.7008 -86.6814 151° Southeast 485 558 35,000 300 Level Indianapolis Center
07:44AM 39.5822 -86.5981 152° Southeast 490 564 35,700 720 Climbing Indianapolis Center
07:45AM 39.4631 -86.5147 152° Southeast 493 567 36,600 600 Climbing Indianapolis Center
07:46AM 39.3456 -86.4300 151° Southeast 491 565 37,000 180 Climbing Indianapolis Center
07:47AM 39.2256 -86.3469 152° Southeast 491 565 37,000  Level Indianapolis Center
07:48AM 39.0819 -86.2458 151° Southeast 493 567 37,000  Level Indianapolis Center
07:49AM 38.9608 -86.1631 152° Southeast 494 568 37,000  Level Indianapolis Center
07:50AM 38.8322 -86.0736 152° Southeast 493 567 37,000  Level Indianapolis Center
07:51AM 38.7100 -85.9889 152° Southeast 494 568 37,000  Level Indianapolis Center
07:52AM 38.5861 -85.9044 152° Southeast 498 573 37,000  Level Indianapolis Center
07:53AM 38.4633 -85.8214 152° Southeast 498 573 37,000  Level Indianapolis Center
07:54AM 38.3417 -85.7375 152° Southeast 495 570 37,000  Level Indianapolis Center
07:56AM 38.2183 -85.6553 152° Southeast 495 570 37,000  Level Indianapolis Center
07:57AM 38.0931 -85.5806 155° Southeast 492 566 37,000  Level Indianapolis Center
07:58AM 37.9572 -85.5381 166° South 494 568 37,000  Level Indianapolis Center
07:59AM 37.8186 -85.5014 168° South 490 564 37,000  Level Indianapolis Center
08:00AM 37.6892 -85.4636 167° South 483 556 37,000  Level Indianapolis Center
08:01AM 37.5336 -85.4247 169° South 488 562 37,000  Level Indianapolis Center
08:02AM 37.4019 -85.3908 168° South 483 556 37,000  Level Indianapolis Center
08:03AM 37.2703 -85.3544 168° South 484 557 37,000  Level Indianapolis Center
08:04AM 37.1397 -85.3206 168° South 481 554 37,000  Level Indianapolis Center
08:05AM 37.0006 -85.2836 168° South 478 550 37,000  Level Indianapolis Center
08:06AM 36.8700 -85.2486 168° South 478 550 37,000  Level Indianapolis Center
08:07AM 36.7400 -85.2147 168° South 478 550 37,000  Level Indianapolis Center
08:08AM 36.6100 -85.1819 169° South 476 548 37,000  Level Indianapolis Center
08:09AM 36.4814 -85.1486 168° South 474 545 37,000  Level Indianapolis Center
08:10AM 36.3525 -85.1147 168° South 473 544 37,000  Level Indianapolis Center
08:11AM 36.1978 -85.0750 168° South 473 544 37,000  Level Indianapolis Center
08:12AM 36.0697 -85.0419 168° South 473 544 37,000  Level Indianapolis Center
08:13AM 35.9492 -85.0117 169° South 469 540 37,000  Level Indianapolis Center
08:14AM 35.8156 -84.9758 168° South 486 559 37,000  Level Indianapolis Center
08:15AM 35.6919 -84.9492 170° South 473 544 37,000  Level Atlanta Center
08:16AM 35.5669 -84.9169 168° South 473 544 37,000  Level Atlanta Center
08:17AM 35.4381 -84.8825 168° South 468 539 37,000  Level Atlanta Center
08:18AM 35.3089 -84.8506 169° South 468 539 37,000  Level Atlanta Center
08:19AM 35.1797 -84.8189 169° South 468 539 37,000  Level Atlanta Center
08:20AM 35.0525 -84.7872 168° South 468 539 37,000  Level Atlanta Center
08:21AM 34.9256 -84.7533 168° South 468 539 37,000  Level Atlanta Center
08:22AM 34.7942 -84.7217 169° South 468 539 37,000  Level Atlanta Center
08:23AM 34.6669 -84.6903 169° South 468 539 37,000  Level Atlanta Center
08:24AM 34.5419 -84.6592 168° South 462 532 37,000  Level Atlanta Center
08:25AM 34.4128 -84.6256 168° South 468 539 37,000  Level Atlanta Center
08:26AM 34.2836 -84.5944 169° South 468 539 37,000  Level Atlanta Center
08:27AM 34.1564 -84.5633 169° South 468 539 37,000  Level Atlanta Center
08:28AM 34.0228 -84.5350 170° South 478 550 37,000  Level Atlanta Center
08:29AM 33.9081 -84.5044 168° South 478 550 37,000  Level Atlanta Center
08:30AM 33.7747 -84.4736 169° South 483 556 37,000  Level Atlanta Center
08:31AM 33.6475 -84.4431 169° South 478 550 37,000  Level Atlanta Center
08:32AM 33.5119 -84.3925 163° South 472 543 37,000  Level Atlanta Center
08:33AM 33.3911 -84.3400 160° South 462 532 37,000  Level Atlanta Center
08:34AM 33.2681 -84.2897 161° South 462 532 37,000  Level Atlanta Center
08:35AM 33.1450 -84.2372 160° South 469 540 37,000  Level Atlanta Center
08:36AM 33.0261 -84.1875 161° South 458 527 37,000  Level Atlanta Center
08:37AM 32.9050 -84.1378 161° South 458 527 37,000  Level Atlanta Center
08:38AM 32.7839 -84.0858 160° South 463 533 37,000  Level Atlanta Center
08:39AM 32.6628 -84.0364 161° South 463 533 37,000  Level Atlanta Center
08:40AM 32.5419 -83.9869 161° South 463 533 37,000  Level Atlanta Center
08:41AM 32.4186 -83.9356 161° South 463 533 37,000  Level Atlanta Center
08:42AM 32.2997 -83.8864 161° South 463 533 37,000  Level Atlanta Center
08:44AM 32.0778 -83.7972 161° South 456 525 37,000  Level Jacksonville Center
08:45AM 31.9592 -83.7472 160° South 451 519 37,000 -60 Level Jacksonville Center
08:46AM 31.8403 -83.6947 159° South 451 519 36,900 -60 Descending Jacksonville Center
08:47AM 31.7194 -83.6472 162° South 451 519 36,900  Level Jacksonville Center
08:48AM 31.6028 -83.6025 162° South 475 547 37,000 60 Climbing Jacksonville Center
08:49AM 31.4969 -83.5286 149° Southeast 475 547 37,100  Climbing Jacksonville Center
08:50AM 31.3928 -83.4475 146° Southeast 454 522 37,000 -240 Descending Jacksonville Center
08:51AM 31.2867 -83.3714 148° Southeast 454 522 36,700 -660 Descending Jacksonville Center
08:52AM 31.1803 -83.2981 149° Southeast 448 516 35,700 -1,020 Descending Jacksonville Center
08:53AM 31.0700 -83.2175 148° Southeast 454 522 34,700 -1,680 Descending Jacksonville Center
08:54AM 30.9594 -83.1397 149° Southeast 454 522 32,400 -2,280 Descending Jacksonville Center
08:55AM 30.8489 -83.0619 149° Southeast 459 528 30,200 -2,340 Descending Jacksonville Center
08:56AM 30.7342 -82.9797 148° Southeast 459 528 27,800 -1,680 Descending Jacksonville Center
08:57AM 30.6236 -82.9069 150° Southeast 448 516 26,900 -420 Descending Jacksonville Center
08:58AM 30.5253 -82.8322 147° Southeast 435 501 27,000  Climbing Jacksonville Center
08:59AM 30.4189 -82.7625 151° Southeast 435 501 26,900 -180 Descending Jacksonville Center
09:00AM 30.3164 -82.6881 148° Southeast 435 501 26,700 -420 Descending Jacksonville Center
09:01AM 30.2119 -82.6211 151° Southeast 430 495 26,100 -840 Descending Jacksonville Center
09:02AM 30.1178 -82.5564 149° Southeast 430 495 25,100 -600 Descending Jacksonville Center
09:03AM 30.0092 -82.4775 148° Southeast 425 489 24,900 -60 Descending Jacksonville Center
09:04AM 29.9003 -82.4278 158° South 419 482 25,000  Climbing Jacksonville Center
09:05AM 29.7875 -82.3875 163° South 419 482 24,900 -480 Descending Jacksonville Center
09:06AM 29.6744 -82.3453 162° South 426 490 24,100 -960 Descending Jacksonville Center
09:07AM 29.5742 -82.3100 163° South 421 484 23,000 -1,500 Descending Jacksonville Center
09:08AM 29.4653 -82.2725 163° South 421 484 21,100 -1,800 Descending Jacksonville Center
09:09AM 29.3567 -82.2325 162° South 416 479 19,400 -1,680 Descending Jacksonville Center
09:10AM 29.2542 -82.1953 162° South 410 472 17,800 -1,800 Descending Jacksonville Center
09:11AM 29.1581 -82.1556 160° South 392 451 15,900 -1,800 Descending Jacksonville Center
09:12AM 29.0719 -82.1014 151° Southeast 365 420 14,300 -1,620 Descending Jacksonville Center
09:13AM 28.9861 -82.0475 151° Southeast 354 407 12,700 -1,500 Descending Jacksonville Center
09:14AM 28.9189 -81.9722 136° Southeast 342 394 11,300 -900 Descending Jacksonville Center
09:15AM 28.8639 -81.9017 132° Southeast 320 368 10,900 -780 Descending Jacksonville Center
09:15AM 28.8500 -81.8333 103° East 312 359 10,200 -1,260 Descending Orlando TRACON
09:16AM 28.8167 -81.7500 115° Southeast 306 352 9,100 -600 Descending Orlando TRACON
09:17AM 28.7833 -81.6667 115° Southeast 300 345 9,000 -300 Descending Orlando TRACON
09:18AM 28.7500 -81.5833 115° Southeast 245 282 8,600 -720 Descending Orlando TRACON
09:19AM 28.7333 -81.5167 106° East 242 278 7,600 -840 Descending Orlando TRACON
09:20AM 28.7167 -81.4500 106° East 209 241 7,000 -780 Descending Orlando TRACON
09:21AM 28.7000 -81.4000 111° Southeast 199 229 6,000 -1,140 Descending Orlando TRACON
09:22AM 28.6500 -81.3667 150° Southeast 198 228 4,800 -1,380 Descending Orlando TRACON